WMT9SW LUKK-EDDB
Flight info
| Callsign | WMT9SW |
|---|---|
| Flight time | 1h 52m |
| Altitude | 38000 |
| Route | UNIRA DCT ARPIG DCT HUMOR DCT SOMET DCT SAT DCT KENIN DCT LENOV DCT MODGU DCT DIMEX DCT GOVEN T205 NUKRO NUKRO1L |
| Aircraft | A20N/M-SDE2E3FGHIRWXY/LB1 |
Departure
| Time | 2026-05-04 13:45 |
|---|---|
| Airport | Chişinău International Airport (LUKK) |
Arrival
| Time | 2026-05-04 15:37 |
|---|---|
| Airport | Berlin Brandenburg Airport (EDDB) |
| Time | Latitude | Longitude | Altitude | Speed | Heading |
|---|---|---|---|---|---|
| 2026-05-04 13:01 | 46.93258 | 28.93744 | 408 ft | 0 kts | 97° |
| 2026-05-04 13:37 | 46.93258 | 28.93754 | 408 ft | 2 kts | 97° |
| 2026-05-04 13:37 | 46.93255 | 28.93790 | 405 ft | 5 kts | 97° |
| 2026-05-04 13:38 | 46.93228 | 28.93815 | 408 ft | 6 kts | 176° |
| 2026-05-04 13:38 | 46.93177 | 28.93809 | 408 ft | 9 kts | 187° |
| 2026-05-04 13:38 | 46.93127 | 28.93755 | 406 ft | 10 kts | 263° |
| 2026-05-04 13:38 | 46.93133 | 28.93650 | 409 ft | 11 kts | 276° |
| 2026-05-04 13:39 | 46.93142 | 28.93538 | 410 ft | 11 kts | 277° |
| 2026-05-04 13:39 | 46.93153 | 28.93413 | 410 ft | 13 kts | 277° |
| 2026-05-04 13:39 | 46.93166 | 28.93264 | 410 ft | 16 kts | 277° |
| 2026-05-04 13:39 | 46.93180 | 28.93094 | 409 ft | 18 kts | 277° |
| 2026-05-04 13:40 | 46.93196 | 28.92901 | 408 ft | 20 kts | 277° |
| 2026-05-04 13:40 | 46.93214 | 28.92693 | 404 ft | 20 kts | 276° |
| 2026-05-04 13:40 | 46.93230 | 28.92493 | 405 ft | 19 kts | 277° |
| 2026-05-04 13:40 | 46.93246 | 28.92320 | 406 ft | 14 kts | 277° |
| 2026-05-04 13:41 | 46.93255 | 28.92210 | 404 ft | 7 kts | 277° |
| 2026-05-04 13:41 | 46.93258 | 28.92176 | 407 ft | 1 kts | 277° |
| 2026-05-04 13:41 | 46.93260 | 28.92147 | 407 ft | 5 kts | 277° |
| 2026-05-04 13:42 | 46.93221 | 28.92030 | 407 ft | 9 kts | 196° |
| 2026-05-04 13:42 | 46.93153 | 28.92005 | 408 ft | 11 kts | 194° |
| 2026-05-04 13:42 | 46.93069 | 28.91987 | 407 ft | 14 kts | 178° |
| 2026-05-04 13:42 | 46.92965 | 28.91992 | 408 ft | 15 kts | 178° |
| 2026-05-04 13:43 | 46.92883 | 28.91996 | 408 ft | 5 kts | 178° |
| 2026-05-04 13:43 | 46.92882 | 28.91996 | 408 ft | 0 kts | 178° |
| 2026-05-04 13:43 | 46.92878 | 28.91996 | 408 ft | 2 kts | 178° |
| 2026-05-04 13:44 | 46.92853 | 28.91998 | 408 ft | 7 kts | 178° |
| 2026-05-04 13:44 | 46.92773 | 28.92017 | 409 ft | 12 kts | 146° |
| 2026-05-04 13:44 | 46.92760 | 28.92112 | 408 ft | 6 kts | 88° |
| 2026-05-04 13:44 | 46.92763 | 28.92259 | 408 ft | 36 kts | 88° |
| 2026-05-04 13:45 | 46.92778 | 28.92975 | 409 ft | 102 kts | 88° |
| 2026-05-04 13:45 | 46.92805 | 28.94282 | 407 ft | 152 kts | 88° |
| 2026-05-04 13:45 | 46.92847 | 28.95930 | 784 ft | 161 kts | 84° |
| 2026-05-04 13:45 | 46.92879 | 28.97572 | 1371 ft | 164 kts | 86° |
| 2026-05-04 13:46 | 46.92904 | 28.99232 | 2015 ft | 164 kts | 85° |
| 2026-05-04 13:46 | 46.92934 | 29.00970 | 2496 ft | 179 kts | 85° |
| 2026-05-04 13:46 | 46.92978 | 29.02897 | 2874 ft | 200 kts | 85° |
| 2026-05-04 13:46 | 46.93052 | 29.05017 | 3318 ft | 218 kts | 78° |
| 2026-05-04 13:47 | 46.93681 | 29.07097 | 3751 ft | 231 kts | 46° |
| 2026-05-04 13:47 | 46.95021 | 29.08366 | 4550 ft | 232 kts | 16° |
| 2026-05-04 13:47 | 46.96614 | 29.08428 | 5315 ft | 239 kts | 346° |
| 2026-05-04 13:47 | 46.98074 | 29.07226 | 6109 ft | 249 kts | 318° |
| 2026-05-04 13:48 | 46.99036 | 29.05064 | 6877 ft | 259 kts | 298° |
| 2026-05-04 13:48 | 46.99686 | 29.02570 | 7618 ft | 265 kts | 294° |
| 2026-05-04 13:48 | 47.00215 | 28.99940 | 8315 ft | 274 kts | 287° |
| 2026-05-04 13:48 | 47.00620 | 28.97203 | 9096 ft | 276 kts | 286° |
| 2026-05-04 13:49 | 47.01027 | 28.94420 | 9829 ft | 281 kts | 287° |
| 2026-05-04 13:49 | 47.01448 | 28.91568 | 10307 ft | 296 kts | 287° |
| 2026-05-04 13:49 | 47.01909 | 28.88502 | 10583 ft | 320 kts | 287° |
| 2026-05-04 13:49 | 47.02405 | 28.85199 | 10848 ft | 343 kts | 286° |
| 2026-05-04 13:50 | 47.02927 | 28.81695 | 11289 ft | 357 kts | 286° |
| 2026-05-04 13:50 | 47.03454 | 28.78119 | 12075 ft | 361 kts | 286° |
| 2026-05-04 13:50 | 47.03986 | 28.74505 | 12839 ft | 365 kts | 286° |
| 2026-05-04 13:50 | 47.04526 | 28.70846 | 13624 ft | 369 kts | 286° |
| 2026-05-04 13:51 | 47.05065 | 28.67190 | 14321 ft | 372 kts | 286° |
| 2026-05-04 13:51 | 47.05614 | 28.63460 | 15037 ft | 374 kts | 286° |
| 2026-05-04 13:51 | 47.06165 | 28.59711 | 15726 ft | 378 kts | 286° |
| 2026-05-04 13:51 | 47.06719 | 28.55928 | 16384 ft | 381 kts | 285° |
| 2026-05-04 13:52 | 47.07835 | 28.48298 | 17724 ft | 388 kts | 285° |
| 2026-05-04 13:52 | 47.08401 | 28.44407 | 18341 ft | 392 kts | 285° |
| 2026-05-04 13:52 | 47.08972 | 28.40489 | 18986 ft | 393 kts | 285° |
| 2026-05-04 13:53 | 47.09542 | 28.36554 | 19557 ft | 396 kts | 285° |
| 2026-05-04 13:53 | 47.10115 | 28.32589 | 20137 ft | 398 kts | 285° |
| 2026-05-04 13:53 | 47.10689 | 28.28599 | 20720 ft | 401 kts | 284° |
| 2026-05-04 13:54 | 47.11844 | 28.20530 | 21837 ft | 406 kts | 284° |
| 2026-05-04 13:54 | 47.12426 | 28.16451 | 22374 ft | 410 kts | 284° |
| 2026-05-04 13:54 | 47.13597 | 28.08216 | 23491 ft | 415 kts | 284° |
| 2026-05-04 13:55 | 47.14188 | 28.04041 | 23974 ft | 417 kts | 283° |
| 2026-05-04 13:55 | 47.15366 | 27.95688 | 24981 ft | 418 kts | 283° |
| 2026-05-04 13:55 | 47.15947 | 27.91547 | 25438 ft | 420 kts | 283° |
| 2026-05-04 13:56 | 47.16555 | 27.87340 | 25923 ft | 420 kts | 286° |
| 2026-05-04 13:56 | 47.17441 | 27.83248 | 26278 ft | 422 kts | 293° |
| 2026-05-04 13:56 | 47.19867 | 27.75330 | 27080 ft | 426 kts | 295° |
| 2026-05-04 13:57 | 47.21089 | 27.71356 | 27487 ft | 428 kts | 295° |
| 2026-05-04 13:57 | 47.22314 | 27.67354 | 27878 ft | 429 kts | 295° |
| 2026-05-04 13:58 | 47.26006 | 27.55250 | 28990 ft | 435 kts | 295° |
| 2026-05-04 13:58 | 47.28489 | 27.47074 | 29474 ft | 443 kts | 295° |
| 2026-05-04 13:58 | 47.29750 | 27.42915 | 29749 ft | 446 kts | 295° |
| 2026-05-04 13:59 | 47.31012 | 27.38746 | 30104 ft | 447 kts | 295° |
| 2026-05-04 13:59 | 47.32264 | 27.34602 | 30374 ft | 449 kts | 295° |
| 2026-05-04 13:59 | 47.34165 | 27.25788 | 30892 ft | 455 kts | 282° |
| 2026-05-04 14:00 | 47.34752 | 27.21193 | 31170 ft | 457 kts | 282° |
| 2026-05-04 14:00 | 47.35960 | 27.11993 | 31833 ft | 457 kts | 282° |
| 2026-05-04 14:00 | 47.36566 | 27.07366 | 32078 ft | 459 kts | 282° |
| 2026-05-04 14:01 | 47.37169 | 27.02736 | 32427 ft | 458 kts | 282° |
| 2026-05-04 14:01 | 47.37768 | 26.98115 | 32797 ft | 457 kts | 282° |
| 2026-05-04 14:01 | 47.38954 | 26.88913 | 33470 ft | 456 kts | 282° |
| 2026-05-04 14:02 | 47.39543 | 26.84318 | 33779 ft | 456 kts | 282° |
| 2026-05-04 14:02 | 47.40130 | 26.79721 | 34071 ft | 455 kts | 282° |
| 2026-05-04 14:02 | 47.40708 | 26.75185 | 34330 ft | 455 kts | 282° |
| 2026-05-04 14:02 | 47.41290 | 26.70597 | 34554 ft | 454 kts | 282° |
| 2026-05-04 14:03 | 47.41868 | 26.66016 | 34798 ft | 454 kts | 282° |
| 2026-05-04 14:03 | 47.42447 | 26.61425 | 35042 ft | 453 kts | 282° |
| 2026-05-04 14:03 | 47.43022 | 26.56850 | 35272 ft | 453 kts | 282° |
| 2026-05-04 14:03 | 47.43596 | 26.52262 | 35496 ft | 453 kts | 282° |
| 2026-05-04 14:04 | 47.44738 | 26.43101 | 35931 ft | 452 kts | 282° |
| 2026-05-04 14:04 | 47.45305 | 26.38520 | 36144 ft | 452 kts | 282° |
| 2026-05-04 14:04 | 47.45870 | 26.33951 | 36365 ft | 451 kts | 282° |
| 2026-05-04 14:05 | 47.46991 | 26.24809 | 36679 ft | 452 kts | 282° |
| 2026-05-04 14:05 | 47.47544 | 26.20295 | 36869 ft | 451 kts | 282° |
| 2026-05-04 14:05 | 47.48109 | 26.15660 | 37041 ft | 451 kts | 281° |
| 2026-05-04 14:06 | 47.48656 | 26.11152 | 37232 ft | 451 kts | 281° |
| 2026-05-04 14:06 | 47.49207 | 26.06591 | 37366 ft | 451 kts | 281° |
| 2026-05-04 14:06 | 47.49758 | 26.02021 | 37522 ft | 451 kts | 282° |
| 2026-05-04 14:06 | 47.50308 | 25.97450 | 37653 ft | 451 kts | 281° |
| 2026-05-04 14:07 | 47.50855 | 25.92880 | 37831 ft | 451 kts | 281° |
| 2026-05-04 14:07 | 47.51396 | 25.88312 | 38016 ft | 450 kts | 280° |
| 2026-05-04 14:07 | 47.51668 | 25.85271 | 38030 ft | 450 kts | 277° |
| 2026-05-04 14:08 | 47.52360 | 25.76074 | 38035 ft | 450 kts | 278° |
| 2026-05-04 14:08 | 47.53078 | 25.66874 | 38036 ft | 449 kts | 277° |
| 2026-05-04 14:09 | 47.54128 | 25.53094 | 38033 ft | 450 kts | 278° |
| 2026-05-04 14:10 | 47.55156 | 25.39299 | 38051 ft | 449 kts | 277° |
| 2026-05-04 14:10 | 47.55828 | 25.30153 | 38043 ft | 450 kts | 277° |
| 2026-05-04 14:11 | 47.56494 | 25.20985 | 38046 ft | 447 kts | 278° |
| 2026-05-04 14:11 | 47.57482 | 25.07212 | 38042 ft | 448 kts | 277° |
| 2026-05-04 14:12 | 47.58130 | 24.98040 | 38054 ft | 447 kts | 277° |
| 2026-05-04 14:13 | 47.59088 | 24.84282 | 38050 ft | 448 kts | 277° |
| 2026-05-04 14:13 | 47.59715 | 24.75147 | 38062 ft | 448 kts | 277° |
| 2026-05-04 14:14 | 47.60338 | 24.65951 | 38051 ft | 449 kts | 277° |
| 2026-05-04 14:14 | 47.61261 | 24.52134 | 38043 ft | 450 kts | 277° |
| 2026-05-04 14:15 | 47.62469 | 24.33670 | 38046 ft | 448 kts | 277° |
| 2026-05-04 14:16 | 47.63350 | 24.19883 | 38047 ft | 450 kts | 277° |
| 2026-05-04 14:17 | 47.64216 | 24.06072 | 38049 ft | 447 kts | 277° |
| 2026-05-04 14:18 | 47.65066 | 23.92255 | 38054 ft | 448 kts | 276° |
| 2026-05-04 14:19 | 47.66169 | 23.73875 | 38072 ft | 449 kts | 277° |
| 2026-05-04 14:19 | 47.66711 | 23.64673 | 38076 ft | 447 kts | 276° |
| 2026-05-04 14:20 | 47.67244 | 23.55493 | 38070 ft | 445 kts | 276° |
| 2026-05-04 14:20 | 47.67767 | 23.46352 | 38059 ft | 444 kts | 276° |
| 2026-05-04 14:21 | 47.68537 | 23.32662 | 38038 ft | 443 kts | 276° |
| 2026-05-04 14:21 | 47.69040 | 23.23561 | 38048 ft | 442 kts | 276° |
| 2026-05-04 14:22 | 47.69624 | 23.14475 | 38056 ft | 441 kts | 281° |
| 2026-05-04 14:22 | 47.70733 | 23.05579 | 38051 ft | 440 kts | 282° |
| 2026-05-04 14:23 | 47.72871 | 22.92349 | 38051 ft | 437 kts | 295° |
| 2026-05-04 14:24 | 47.76002 | 22.84676 | 38062 ft | 433 kts | 311° |
| 2026-05-04 14:24 | 47.80187 | 22.78248 | 38065 ft | 432 kts | 316° |
| 2026-05-04 14:25 | 47.84397 | 22.71919 | 38057 ft | 433 kts | 316° |
| 2026-05-04 14:25 | 47.90752 | 22.62324 | 38060 ft | 434 kts | 316° |
| 2026-05-04 14:26 | 47.94994 | 22.55902 | 38061 ft | 433 kts | 316° |
| 2026-05-04 14:26 | 47.99217 | 22.49494 | 38061 ft | 432 kts | 316° |
| 2026-05-04 14:27 | 48.03414 | 22.43111 | 38061 ft | 432 kts | 315° |
| 2026-05-04 14:27 | 48.07633 | 22.36678 | 38063 ft | 432 kts | 315° |
| 2026-05-04 14:28 | 48.11851 | 22.30229 | 38057 ft | 433 kts | 315° |
| 2026-05-04 14:28 | 48.16031 | 22.23824 | 38067 ft | 433 kts | 315° |
| 2026-05-04 14:29 | 48.24435 | 22.10897 | 38068 ft | 433 kts | 315° |
| 2026-05-04 14:30 | 48.28634 | 22.04414 | 38058 ft | 433 kts | 315° |
| 2026-05-04 14:31 | 48.34992 | 21.94760 | 38058 ft | 432 kts | 320° |
| 2026-05-04 14:32 | 48.44897 | 21.84728 | 38057 ft | 430 kts | 329° |
| 2026-05-04 14:32 | 48.49996 | 21.79992 | 38051 ft | 430 kts | 329° |
| 2026-05-04 14:33 | 48.55095 | 21.75260 | 38046 ft | 430 kts | 329° |
| 2026-05-04 14:33 | 48.60195 | 21.70525 | 38049 ft | 430 kts | 329° |
| 2026-05-04 14:34 | 48.65264 | 21.65807 | 38047 ft | 430 kts | 329° |
| 2026-05-04 14:34 | 48.70367 | 21.61046 | 38047 ft | 430 kts | 329° |
| 2026-05-04 14:35 | 48.75462 | 21.56281 | 38051 ft | 430 kts | 329° |
| 2026-05-04 14:35 | 48.80556 | 21.51506 | 38063 ft | 430 kts | 329° |
| 2026-05-04 14:36 | 48.85624 | 21.46743 | 38056 ft | 430 kts | 329° |
| 2026-05-04 14:36 | 48.90702 | 21.41959 | 38051 ft | 426 kts | 329° |
| 2026-05-04 14:37 | 48.95739 | 21.37202 | 38042 ft | 426 kts | 329° |
| 2026-05-04 14:37 | 49.00756 | 21.32454 | 38032 ft | 425 kts | 329° |
| 2026-05-04 14:38 | 49.05798 | 21.27670 | 38032 ft | 426 kts | 329° |
| 2026-05-04 14:38 | 49.10840 | 21.22875 | 38025 ft | 430 kts | 328° |
| 2026-05-04 14:39 | 49.15874 | 21.18074 | 38029 ft | 423 kts | 328° |
| 2026-05-04 14:39 | 49.20868 | 21.13301 | 38017 ft | 424 kts | 328° |
| 2026-05-04 14:40 | 49.28350 | 21.06129 | 38013 ft | 423 kts | 328° |
| 2026-05-04 14:40 | 49.33260 | 21.01155 | 38015 ft | 429 kts | 323° |
| 2026-05-04 14:41 | 49.37739 | 20.95105 | 38012 ft | 424 kts | 317° |
| 2026-05-04 14:42 | 49.46335 | 20.82782 | 38005 ft | 426 kts | 317° |
| 2026-05-04 14:42 | 49.50692 | 20.76490 | 38003 ft | 430 kts | 316° |
| 2026-05-04 14:43 | 49.55037 | 20.70192 | 38005 ft | 427 kts | 316° |
| 2026-05-04 14:43 | 49.59371 | 20.63895 | 37998 ft | 428 kts | 316° |
| 2026-05-04 14:44 | 49.63732 | 20.57549 | 37997 ft | 431 kts | 316° |
| 2026-05-04 14:44 | 49.68078 | 20.51202 | 38002 ft | 430 kts | 316° |
| 2026-05-04 14:45 | 49.72395 | 20.44882 | 37988 ft | 430 kts | 315° |
| 2026-05-04 14:45 | 49.76351 | 20.37958 | 38001 ft | 430 kts | 306° |
| 2026-05-04 14:46 | 49.79885 | 20.30470 | 38002 ft | 430 kts | 306° |
| 2026-05-04 14:46 | 49.83414 | 20.23062 | 37987 ft | 426 kts | 306° |
| 2026-05-04 14:47 | 49.86914 | 20.15678 | 37987 ft | 427 kts | 305° |
| 2026-05-04 14:47 | 49.90417 | 20.08248 | 37989 ft | 427 kts | 305° |
| 2026-05-04 14:48 | 49.93918 | 20.00794 | 37975 ft | 426 kts | 305° |
| 2026-05-04 14:48 | 49.97413 | 19.93331 | 37962 ft | 427 kts | 305° |
| 2026-05-04 14:49 | 50.00883 | 19.85903 | 37966 ft | 427 kts | 305° |
| 2026-05-04 14:49 | 50.04373 | 19.78410 | 37971 ft | 428 kts | 305° |
| 2026-05-04 14:50 | 50.07855 | 19.70913 | 37966 ft | 426 kts | 305° |
| 2026-05-04 14:50 | 50.11332 | 19.63405 | 37986 ft | 426 kts | 305° |
| 2026-05-04 14:51 | 50.14805 | 19.55885 | 37987 ft | 427 kts | 304° |
| 2026-05-04 14:51 | 50.18244 | 19.48418 | 37980 ft | 426 kts | 304° |
| 2026-05-04 14:52 | 50.21695 | 19.40902 | 37982 ft | 426 kts | 304° |
| 2026-05-04 14:52 | 50.25145 | 19.33366 | 37986 ft | 426 kts | 304° |
| 2026-05-04 14:53 | 50.28590 | 19.25820 | 37988 ft | 425 kts | 304° |
| 2026-05-04 14:53 | 50.32020 | 19.18290 | 37986 ft | 424 kts | 304° |
| 2026-05-04 14:54 | 50.35438 | 19.10762 | 37980 ft | 423 kts | 304° |
| 2026-05-04 14:54 | 50.38821 | 19.03287 | 37977 ft | 423 kts | 304° |
| 2026-05-04 14:55 | 50.42211 | 18.95776 | 37973 ft | 422 kts | 304° |
| 2026-05-04 14:55 | 50.45028 | 18.89518 | 37966 ft | 422 kts | 303° |
| 2026-05-04 14:56 | 50.48408 | 18.81989 | 37970 ft | 421 kts | 303° |
| 2026-05-04 14:56 | 50.51780 | 18.74460 | 37949 ft | 421 kts | 303° |
| 2026-05-04 14:57 | 50.55146 | 18.66921 | 37958 ft | 421 kts | 303° |
| 2026-05-04 14:57 | 50.58513 | 18.59357 | 37956 ft | 421 kts | 303° |
| 2026-05-04 14:58 | 50.61854 | 18.51828 | 37946 ft | 421 kts | 303° |
| 2026-05-04 14:58 | 50.65212 | 18.44243 | 37948 ft | 422 kts | 303° |
| 2026-05-04 14:59 | 50.68566 | 18.36643 | 37944 ft | 422 kts | 303° |
| 2026-05-04 15:00 | 50.73570 | 18.25263 | 37948 ft | 422 kts | 303° |
| 2026-05-04 15:00 | 50.76912 | 18.17634 | 37948 ft | 422 kts | 303° |
| 2026-05-04 15:01 | 50.81923 | 18.06154 | 37948 ft | 423 kts | 303° |
| 2026-05-04 15:01 | 50.85269 | 17.98459 | 37950 ft | 423 kts | 303° |
| 2026-05-04 15:02 | 50.88580 | 17.90825 | 37951 ft | 423 kts | 302° |
| 2026-05-04 15:02 | 50.91914 | 17.83114 | 37950 ft | 424 kts | 302° |
| 2026-05-04 15:03 | 50.95240 | 17.75399 | 37954 ft | 423 kts | 302° |
| 2026-05-04 15:03 | 50.98557 | 17.67681 | 37951 ft | 423 kts | 302° |
| 2026-05-04 15:04 | 51.01873 | 17.59944 | 37948 ft | 423 kts | 302° |
| 2026-05-04 15:04 | 51.05180 | 17.52205 | 37951 ft | 423 kts | 302° |
| 2026-05-04 15:05 | 51.08458 | 17.44512 | 37944 ft | 422 kts | 302° |
| 2026-05-04 15:05 | 51.11748 | 17.36767 | 37943 ft | 422 kts | 302° |
| 2026-05-04 15:06 | 51.15027 | 17.29028 | 37940 ft | 418 kts | 302° |
| 2026-05-04 15:07 | 51.19880 | 17.17522 | 37940 ft | 418 kts | 301° |
| 2026-05-04 15:07 | 51.23114 | 17.09829 | 37939 ft | 417 kts | 301° |
| 2026-05-04 15:08 | 51.26325 | 17.02168 | 37939 ft | 417 kts | 301° |
| 2026-05-04 15:08 | 51.29563 | 16.94420 | 37933 ft | 418 kts | 301° |
| 2026-05-04 15:09 | 51.32790 | 16.86678 | 37937 ft | 418 kts | 301° |
| 2026-05-04 15:09 | 51.35992 | 16.78969 | 37934 ft | 418 kts | 301° |
| 2026-05-04 15:10 | 51.40816 | 16.67310 | 37934 ft | 419 kts | 301° |
| 2026-05-04 15:11 | 51.45632 | 16.55622 | 37939 ft | 419 kts | 301° |
| 2026-05-04 15:11 | 51.48842 | 16.47800 | 37937 ft | 420 kts | 301° |
| 2026-05-04 15:12 | 51.52047 | 16.39969 | 37933 ft | 420 kts | 300° |
| 2026-05-04 15:12 | 51.55228 | 16.32173 | 37935 ft | 420 kts | 300° |
| 2026-05-04 15:13 | 51.58431 | 16.24306 | 37936 ft | 420 kts | 300° |
| 2026-05-04 15:13 | 51.61627 | 16.16440 | 37939 ft | 420 kts | 300° |
| 2026-05-04 15:14 | 51.64510 | 16.08321 | 37941 ft | 414 kts | 293° |
| 2026-05-04 15:14 | 51.67129 | 16.00048 | 37947 ft | 415 kts | 295° |
| 2026-05-04 15:15 | 51.69762 | 15.91844 | 37845 ft | 413 kts | 294° |
| 2026-05-04 15:15 | 51.71073 | 15.87730 | 37339 ft | 413 kts | 294° |
| 2026-05-04 15:15 | 51.72389 | 15.83582 | 36484 ft | 415 kts | 294° |
| 2026-05-04 15:16 | 51.75045 | 15.75175 | 34031 ft | 425 kts | 294° |
| 2026-05-04 15:16 | 51.76384 | 15.70926 | 32752 ft | 427 kts | 294° |
| 2026-05-04 15:16 | 51.79096 | 15.62303 | 30219 ft | 432 kts | 294° |
| 2026-05-04 15:17 | 51.80446 | 15.57999 | 29185 ft | 427 kts | 294° |
| 2026-05-04 15:17 | 51.83051 | 15.49686 | 28051 ft | 402 kts | 294° |
| 2026-05-04 15:17 | 51.84307 | 15.45658 | 27542 ft | 402 kts | 294° |
| 2026-05-04 15:18 | 51.85571 | 15.41590 | 26773 ft | 408 kts | 294° |
| 2026-05-04 15:18 | 51.86852 | 15.37459 | 25758 ft | 415 kts | 294° |
| 2026-05-04 15:18 | 51.88160 | 15.33239 | 24832 ft | 421 kts | 294° |
| 2026-05-04 15:19 | 51.90767 | 15.24827 | 23544 ft | 415 kts | 294° |
| 2026-05-04 15:19 | 51.92053 | 15.20666 | 22818 ft | 411 kts | 294° |
| 2026-05-04 15:19 | 51.94570 | 15.12497 | 21451 ft | 404 kts | 294° |
| 2026-05-04 15:20 | 51.95813 | 15.08453 | 20555 ft | 398 kts | 294° |
| 2026-05-04 15:20 | 51.97041 | 15.04451 | 19600 ft | 394 kts | 294° |
| 2026-05-04 15:20 | 51.98252 | 15.00495 | 19057 ft | 388 kts | 294° |
| 2026-05-04 15:20 | 51.99443 | 14.96600 | 18535 ft | 383 kts | 294° |
| 2026-05-04 15:21 | 52.00622 | 14.92736 | 17957 ft | 379 kts | 294° |
| 2026-05-04 15:21 | 52.01779 | 14.88939 | 17443 ft | 373 kts | 294° |
| 2026-05-04 15:21 | 52.04047 | 14.81484 | 16418 ft | 362 kts | 293° |
| 2026-05-04 15:22 | 52.05050 | 14.77771 | 15924 ft | 355 kts | 285° |
| 2026-05-04 15:22 | 52.05600 | 14.73912 | 15437 ft | 348 kts | 275° |
| 2026-05-04 15:22 | 52.05545 | 14.66244 | 14497 ft | 338 kts | 265° |
| 2026-05-04 15:23 | 52.05424 | 14.62449 | 14036 ft | 334 kts | 265° |
| 2026-05-04 15:23 | 52.05309 | 14.58687 | 13555 ft | 331 kts | 265° |
| 2026-05-04 15:23 | 52.05193 | 14.54977 | 13090 ft | 327 kts | 265° |
| 2026-05-04 15:23 | 52.05077 | 14.51313 | 12644 ft | 322 kts | 265° |
| 2026-05-04 15:24 | 52.05006 | 14.44137 | 11767 ft | 316 kts | 278° |
| 2026-05-04 15:24 | 52.07191 | 14.38077 | 10890 ft | 319 kts | 315° |
| 2026-05-04 15:25 | 52.08845 | 14.35688 | 10452 ft | 317 kts | 315° |
| 2026-05-04 15:25 | 52.10478 | 14.33339 | 10247 ft | 307 kts | 315° |
| 2026-05-04 15:25 | 52.12042 | 14.31084 | 10135 ft | 294 kts | 315° |
| 2026-05-04 15:26 | 52.15003 | 14.26781 | 9714 ft | 280 kts | 314° |
| 2026-05-04 15:26 | 52.16457 | 14.24655 | 9542 ft | 282 kts | 314° |
| 2026-05-04 15:26 | 52.19384 | 14.20368 | 8825 ft | 281 kts | 315° |
| 2026-05-04 15:27 | 52.20833 | 14.18248 | 8478 ft | 278 kts | 315° |
| 2026-05-04 15:27 | 52.23665 | 14.14096 | 7766 ft | 272 kts | 315° |
| 2026-05-04 15:28 | 52.26438 | 14.10024 | 7099 ft | 267 kts | 315° |
| 2026-05-04 15:28 | 52.27789 | 14.08041 | 6952 ft | 252 kts | 315° |
| 2026-05-04 15:28 | 52.30291 | 14.04361 | 6420 ft | 238 kts | 315° |
| 2026-05-04 15:29 | 52.31520 | 14.02546 | 6061 ft | 236 kts | 315° |
| 2026-05-04 15:30 | 52.36321 | 13.95455 | 4926 ft | 221 kts | 316° |
| 2026-05-04 15:30 | 52.39558 | 13.90659 | 4091 ft | 210 kts | 316° |
| 2026-05-04 15:31 | 52.41695 | 13.87496 | 3724 ft | 199 kts | 315° |
| 2026-05-04 15:31 | 52.42639 | 13.85995 | 3671 ft | 180 kts | 304° |
| 2026-05-04 15:32 | 52.42513 | 13.80475 | 3284 ft | 171 kts | 248° |
| 2026-05-04 15:32 | 52.41647 | 13.76863 | 3130 ft | 172 kts | 249° |
| 2026-05-04 15:33 | 52.40796 | 13.73260 | 2801 ft | 164 kts | 250° |
| 2026-05-04 15:34 | 52.39711 | 13.68667 | 2233 ft | 128 kts | 249° |
| 2026-05-04 15:34 | 52.39382 | 13.67276 | 2072 ft | 133 kts | 250° |
| 2026-05-04 15:34 | 52.38728 | 13.64510 | 1726 ft | 128 kts | 250° |
| 2026-05-04 15:35 | 52.38094 | 13.61828 | 1388 ft | 126 kts | 251° |
| 2026-05-04 15:35 | 52.37773 | 13.60464 | 1228 ft | 130 kts | 250° |
| 2026-05-04 15:35 | 52.37453 | 13.59125 | 1048 ft | 121 kts | 251° |
| 2026-05-04 15:36 | 52.36808 | 13.56420 | 666 ft | 127 kts | 251° |
| 2026-05-04 15:36 | 52.36490 | 13.55055 | 501 ft | 132 kts | 250° |
| 2026-05-04 15:36 | 52.36154 | 13.53652 | 398 ft | 132 kts | 250° |
| 2026-05-04 15:37 | 52.35832 | 13.52280 | 244 ft | 129 kts | 249° |
| 2026-05-04 15:37 | 52.35506 | 13.50904 | 154 ft | 120 kts | 249° |
| 2026-05-04 15:37 | 52.35279 | 13.49948 | 154 ft | 61 kts | 249° |
| 2026-05-04 15:37 | 52.35162 | 13.49450 | 154 ft | 43 kts | 249° |
| 2026-05-04 15:38 | 52.35078 | 13.49023 | 154 ft | 36 kts | 265° |
| 2026-05-04 15:38 | 52.35087 | 13.48765 | 154 ft | 10 kts | 278° |
| 2026-05-04 15:38 | 52.35097 | 13.48650 | 154 ft | 7 kts | 278° |
| 2026-05-04 15:38 | 52.35098 | 13.48636 | 154 ft | 3 kts | 278° |
| 2026-05-04 15:39 | 52.35105 | 13.48587 | 154 ft | 7 kts | 287° |
| 2026-05-04 15:39 | 52.35171 | 13.48509 | 154 ft | 16 kts | 337° |
| 2026-05-04 15:39 | 52.35310 | 13.48675 | 154 ft | 17 kts | 69° |
| 2026-05-04 15:40 | 52.35357 | 13.48870 | 154 ft | 20 kts | 69° |
| 2026-05-04 15:40 | 52.35408 | 13.49088 | 154 ft | 21 kts | 70° |
| 2026-05-04 15:40 | 52.35463 | 13.49316 | 154 ft | 22 kts | 68° |
| 2026-05-04 15:40 | 52.35520 | 13.49557 | 154 ft | 24 kts | 69° |
| 2026-05-04 15:41 | 52.35582 | 13.49819 | 154 ft | 26 kts | 69° |
| 2026-05-04 15:41 | 52.35628 | 13.50014 | 154 ft | 0 kts | 69° |
| 2026-05-04 15:41 | 52.35631 | 13.50028 | 154 ft | 2 kts | 68° |
| 2026-05-04 15:41 | 52.35644 | 13.50079 | 154 ft | 9 kts | 68° |
| 2026-05-04 15:42 | 52.35681 | 13.50236 | 154 ft | 18 kts | 69° |
| 2026-05-04 15:42 | 52.35715 | 13.50375 | 154 ft | 21 kts | 69° |
| 2026-05-04 15:42 | 52.35765 | 13.50584 | 154 ft | 14 kts | 64° |
| 2026-05-04 15:42 | 52.35887 | 13.50648 | 154 ft | 16 kts | 13° |
| 2026-05-04 15:43 | 52.35995 | 13.50603 | 154 ft | 17 kts | 338° |
| 2026-05-04 15:43 | 52.36112 | 13.50528 | 154 ft | 19 kts | 339° |
| 2026-05-04 15:43 | 52.36199 | 13.50474 | 154 ft | 20 kts | 339° |
| 2026-05-04 15:43 | 52.36338 | 13.50386 | 154 ft | 22 kts | 339° |
| 2026-05-04 15:44 | 52.36485 | 13.50293 | 154 ft | 24 kts | 339° |
| 2026-05-04 15:44 | 52.36642 | 13.50193 | 154 ft | 24 kts | 339° |
| 2026-05-04 15:44 | 52.36746 | 13.50214 | 154 ft | 14 kts | 58° |
| 2026-05-04 15:44 | 52.36784 | 13.50375 | 154 ft | 17 kts | 69° |
| 2026-05-04 15:45 | 52.36830 | 13.50564 | 154 ft | 19 kts | 68° |
| 2026-05-04 15:45 | 52.36868 | 13.50723 | 154 ft | 15 kts | 69° |
| 2026-05-04 15:45 | 52.36906 | 13.50886 | 154 ft | 7 kts | 69° |
| 2026-05-04 15:45 | 52.36906 | 13.50935 | 154 ft | 4 kts | 128° |
| 2026-05-04 15:46 | 52.36870 | 13.50965 | 154 ft | 7 kts | 159° |
| 2026-05-04 15:46 | 52.36853 | 13.50975 | 154 ft | 2 kts | 159° |
| 2026-05-04 15:46 | 52.36842 | 13.50982 | 154 ft | 0 kts | 159° |